sensor_id;sensor_type;location;lat;lon;timestamp;P1;durP1;ratioP1;P2;durP2;ratioP2
11052;SDS011;55230;42.602;23.470;2022-09-02T00:01:20;20.37;;;18.10;;
11052;SDS011;55230;42.602;23.470;2022-09-02T00:03:50;25.00;;;18.60;;
11052;SDS011;55230;42.602;23.470;2022-09-02T00:06:18;19.73;;;17.60;;
11052;SDS011;55230;42.602;23.470;2022-09-02T00:08:45;25.40;;;18.53;;
11052;SDS011;55230;42.602;23.470;2022-09-02T00:11:13;21.17;;;19.07;;
11052;SDS011;55230;42.602;23.470;2022-09-02T00:13:41;23.30;;;19.40;;
11052;SDS011;55230;42.602;23.470;2022-09-02T00:16:10;19.77;;;17.67;;
11052;SDS011;55230;42.602;23.470;2022-09-02T00:18:38;23.10;;;19.20;;
11052;SDS011;55230;42.602;23.470;2022-09-02T00:21:07;24.43;;;19.57;;
11052;SDS011;55230;42.602;23.470;2022-09-02T00:23:37;24.40;;;19.70;;
11052;SDS011;55230;42.602;23.470;2022-09-02T00:26:05;21.00;;;18.80;;
11052;SDS011;55230;42.602;23.470;2022-09-02T00:28:31;22.30;;;20.00;;
11052;SDS011;55230;42.602;23.470;2022-09-02T00:30:59;24.20;;;20.20;;
11052;SDS011;55230;42.602;23.470;2022-09-02T00:33:26;22.80;;;20.00;;
11052;SDS011;55230;42.602;23.470;2022-09-02T00:35:56;22.33;;;19.27;;
11052;SDS011;55230;42.602;23.470;2022-09-02T00:38:26;20.97;;;18.30;;
11052;SDS011;55230;42.602;23.470;2022-09-02T00:40:54;20.57;;;18.10;;
11052;SDS011;55230;42.602;23.470;2022-09-02T00:43:22;21.60;;;18.63;;
11052;SDS011;55230;42.602;23.470;2022-09-02T00:45:50;21.10;;;18.83;;
11052;SDS011;55230;42.602;23.470;2022-09-02T00:48:18;19.97;;;17.87;;
11052;SDS011;55230;42.602;23.470;2022-09-02T00:50:45;22.73;;;19.70;;
11052;SDS011;55230;42.602;23.470;2022-09-02T00:53:12;21.93;;;19.63;;
11052;SDS011;55230;42.602;23.470;2022-09-02T00:55:43;23.20;;;20.40;;
11052;SDS011;55230;42.602;23.470;2022-09-02T00:58:14;21.33;;;18.80;;
11052;SDS011;55230;42.602;23.470;2022-09-02T01:00:45;22.33;;;19.73;;
11052;SDS011;55230;42.602;23.470;2022-09-02T01:03:14;27.20;;;21.43;;
11052;SDS011;55230;42.602;23.470;2022-09-02T01:05:45;27.27;;;23.60;;
11052;SDS011;55230;42.602;23.470;2022-09-02T01:08:15;28.87;;;24.73;;
11052;SDS011;55230;42.602;23.470;2022-09-02T01:10:46;29.70;;;25.37;;
11052;SDS011;55230;42.602;23.470;2022-09-02T01:13:14;28.00;;;23.80;;
11052;SDS011;55230;42.602;23.470;2022-09-02T01:15:45;29.70;;;24.40;;
11052;SDS011;55230;42.602;23.470;2022-09-02T01:18:14;30.37;;;23.87;;
11052;SDS011;55230;42.602;23.470;2022-09-02T01:20:44;25.07;;;21.03;;
11052;SDS011;55230;42.602;23.470;2022-09-02T01:23:13;22.23;;;19.87;;
11052;SDS011;55230;42.602;23.470;2022-09-02T01:25:41;22.97;;;20.23;;
11052;SDS011;55230;42.602;23.470;2022-09-02T01:28:09;22.20;;;19.27;;
11052;SDS011;55230;42.602;23.470;2022-09-02T01:30:39;20.13;;;17.70;;
11052;SDS011;55230;42.602;23.470;2022-09-02T01:33:09;19.00;;;17.00;;
11052;SDS011;55230;42.602;23.470;2022-09-02T01:35:37;19.77;;;17.27;;
11052;SDS011;55230;42.602;23.470;2022-09-02T01:38:04;17.30;;;15.57;;
11052;SDS011;55230;42.602;23.470;2022-09-02T01:40:32;13.63;;;12.43;;
11052;SDS011;55230;42.602;23.470;2022-09-02T01:43:00;13.73;;;12.30;;
11052;SDS011;55230;42.602;23.470;2022-09-02T01:45:31;13.83;;;12.47;;
11052;SDS011;55230;42.602;23.470;2022-09-02T01:47:59;12.90;;;11.50;;
11052;SDS011;55230;42.602;23.470;2022-09-02T01:50:26;15.40;;;12.00;;
11052;SDS011;55230;42.602;23.470;2022-09-02T01:52:53;13.67;;;12.37;;
11052;SDS011;55230;42.602;23.470;2022-09-02T01:55:20;15.07;;;13.53;;
11052;SDS011;55230;42.602;23.470;2022-09-02T01:57:48;14.63;;;13.23;;
11052;SDS011;55230;42.602;23.470;2022-09-02T02:00:15;14.90;;;13.50;;
11052;SDS011;55230;42.602;23.470;2022-09-02T02:02:42;15.90;;;14.23;;
11052;SDS011;55230;42.602;23.470;2022-09-02T02:05:09;17.30;;;14.33;;
11052;SDS011;55230;42.602;23.470;2022-09-02T02:07:38;18.77;;;16.23;;
11052;SDS011;55230;42.602;23.470;2022-09-02T02:10:07;19.63;;;17.20;;
11052;SDS011;55230;42.602;23.470;2022-09-02T02:12:35;18.87;;;16.90;;
11052;SDS011;55230;42.602;23.470;2022-09-02T02:15:04;18.67;;;16.70;;
11052;SDS011;55230;42.602;23.470;2022-09-02T02:17:33;17.80;;;16.10;;
11052;SDS011;55230;42.602;23.470;2022-09-02T02:20:00;18.57;;;16.60;;
11052;SDS011;55230;42.602;23.470;2022-09-02T02:22:27;18.33;;;16.30;;
11052;SDS011;55230;42.602;23.470;2022-09-02T02:24:55;19.13;;;17.13;;
11052;SDS011;55230;42.602;23.470;2022-09-02T02:27:22;18.73;;;16.13;;
11052;SDS011;55230;42.602;23.470;2022-09-02T02:29:49;17.50;;;15.63;;
11052;SDS011;55230;42.602;23.470;2022-09-02T02:32:17;18.03;;;15.30;;
11052;SDS011;55230;42.602;23.470;2022-09-02T02:34:44;19.30;;;16.67;;
11052;SDS011;55230;42.602;23.470;2022-09-02T02:37:11;19.80;;;16.73;;
11052;SDS011;55230;42.602;23.470;2022-09-02T02:39:39;17.67;;;15.87;;
11052;SDS011;55230;42.602;23.470;2022-09-02T02:42:06;19.30;;;17.30;;
11052;SDS011;55230;42.602;23.470;2022-09-02T02:44:34;18.87;;;16.90;;
11052;SDS011;55230;42.602;23.470;2022-09-02T02:47:01;19.43;;;16.70;;
11052;SDS011;55230;42.602;23.470;2022-09-02T02:49:29;18.90;;;17.00;;
11052;SDS011;55230;42.602;23.470;2022-09-02T02:51:56;21.33;;;17.97;;
11052;SDS011;55230;42.602;23.470;2022-09-02T02:54:23;20.40;;;18.03;;
11052;SDS011;55230;42.602;23.470;2022-09-02T02:56:49;20.13;;;18.03;;
11052;SDS011;55230;42.602;23.470;2022-09-02T02:59:16;20.80;;;17.87;;
11052;SDS011;55230;42.602;23.470;2022-09-02T03:01:43;20.23;;;17.57;;
11052;SDS011;55230;42.602;23.470;2022-09-02T03:04:10;21.77;;;17.80;;
11052;SDS011;55230;42.602;23.470;2022-09-02T03:06:38;21.70;;;19.40;;
11052;SDS011;55230;42.602;23.470;2022-09-02T03:09:05;22.73;;;19.70;;
11052;SDS011;55230;42.602;23.470;2022-09-02T03:11:31;23.23;;;20.73;;
11052;SDS011;55230;42.602;23.470;2022-09-02T03:13:58;23.50;;;21.00;;
11052;SDS011;55230;42.602;23.470;2022-09-02T03:16:25;30.63;;;23.03;;
11052;SDS011;55230;42.602;23.470;2022-09-02T03:18:52;30.37;;;23.13;;
11052;SDS011;55230;42.602;23.470;2022-09-02T03:21:18;26.70;;;22.13;;
11052;SDS011;55230;42.602;23.470;2022-09-02T03:23:47;23.67;;;20.43;;
11052;SDS011;55230;42.602;23.470;2022-09-02T03:26:14;19.67;;;17.57;;
11052;SDS011;55230;42.602;23.470;2022-09-02T03:28:43;16.20;;;13.80;;
11052;SDS011;55230;42.602;23.470;2022-09-02T03:31:12;13.70;;;12.23;;
11052;SDS011;55230;42.602;23.470;2022-09-02T03:33:40;16.03;;;12.67;;
11052;SDS011;55230;42.602;23.470;2022-09-02T03:36:07;12.60;;;11.30;;
11052;SDS011;55230;42.602;23.470;2022-09-02T03:38:34;15.73;;;11.53;;
11052;SDS011;55230;42.602;23.470;2022-09-02T03:41:03;12.33;;;10.73;;
11052;SDS011;55230;42.602;23.470;2022-09-02T03:43:29;12.97;;;10.97;;
11052;SDS011;55230;42.602;23.470;2022-09-02T03:45:56;13.37;;;11.07;;
11052;SDS011;55230;42.602;23.470;2022-09-02T03:48:23;11.97;;;10.70;;
11052;SDS011;55230;42.602;23.470;2022-09-02T03:50:49;10.63;;;9.53;;
11052;SDS011;55230;42.602;23.470;2022-09-02T03:53:16;10.30;;;9.27;;
11052;SDS011;55230;42.602;23.470;2022-09-02T03:55:43;10.23;;;9.23;;
11052;SDS011;55230;42.602;23.470;2022-09-02T03:58:11;10.20;;;9.13;;
11052;SDS011;55230;42.602;23.470;2022-09-02T04:00:39;13.40;;;10.13;;
11052;SDS011;55230;42.602;23.470;2022-09-02T04:03:06;10.30;;;9.23;;
11052;SDS011;55230;42.602;23.470;2022-09-02T04:05:32;11.70;;;9.43;;
11052;SDS011;55230;42.602;23.470;2022-09-02T04:08:00;10.40;;;8.23;;
11052;SDS011;55230;42.602;23.470;2022-09-02T04:10:28;9.33;;;8.43;;
11052;SDS011;55230;42.602;23.470;2022-09-02T04:12:54;8.63;;;7.83;;
11052;SDS011;55230;42.602;23.470;2022-09-02T04:15:23;9.23;;;8.43;;
11052;SDS011;55230;42.602;23.470;2022-09-02T04:17:49;11.10;;;9.03;;
11052;SDS011;55230;42.602;23.470;2022-09-02T04:20:16;9.67;;;8.63;;
11052;SDS011;55230;42.602;23.470;2022-09-02T04:22:43;10.30;;;9.30;;
11052;SDS011;55230;42.602;23.470;2022-09-02T04:25:10;11.10;;;9.70;;
11052;SDS011;55230;42.602;23.470;2022-09-02T04:27:37;10.00;;;9.00;;
11052;SDS011;55230;42.602;23.470;2022-09-02T04:30:05;9.00;;;8.20;;
11052;SDS011;55230;42.602;23.470;2022-09-02T04:32:34;10.63;;;8.50;;
11052;SDS011;55230;42.602;23.470;2022-09-02T04:35:01;9.20;;;8.30;;
11052;SDS011;55230;42.602;23.470;2022-09-02T04:37:29;9.50;;;8.07;;
11052;SDS011;55230;42.602;23.470;2022-09-02T04:39:57;8.00;;;7.20;;
11052;SDS011;55230;42.602;23.470;2022-09-02T04:42:24;7.87;;;7.17;;
11052;SDS011;55230;42.602;23.470;2022-09-02T04:44:51;8.20;;;7.43;;
11052;SDS011;55230;42.602;23.470;2022-09-02T04:47:18;7.97;;;7.17;;
11052;SDS011;55230;42.602;23.470;2022-09-02T04:49:46;8.33;;;7.57;;
11052;SDS011;55230;42.602;23.470;2022-09-02T04:52:15;8.10;;;7.40;;
11052;SDS011;55230;42.602;23.470;2022-09-02T04:54:42;8.80;;;7.90;;
11052;SDS011;55230;42.602;23.470;2022-09-02T04:57:09;7.90;;;7.10;;
11052;SDS011;55230;42.602;23.470;2022-09-02T04:59:36;8.73;;;7.83;;
11052;SDS011;55230;42.602;23.470;2022-09-02T05:02:03;8.10;;;7.30;;
11052;SDS011;55230;42.602;23.470;2022-09-02T05:04:31;8.37;;;7.57;;
11052;SDS011;55230;42.602;23.470;2022-09-02T05:06:59;7.97;;;7.27;;
11052;SDS011;55230;42.602;23.470;2022-09-02T05:09:26;8.20;;;7.47;;
11052;SDS011;55230;42.602;23.470;2022-09-02T05:11:54;8.73;;;7.83;;
11052;SDS011;55230;42.602;23.470;2022-09-02T05:14:22;8.57;;;7.77;;
11052;SDS011;55230;42.602;23.470;2022-09-02T05:16:50;8.03;;;7.23;;
11052;SDS011;55230;42.602;23.470;2022-09-02T05:19:18;7.70;;;6.90;;
11052;SDS011;55230;42.602;23.470;2022-09-02T05:21:46;8.07;;;7.27;;
11052;SDS011;55230;42.602;23.470;2022-09-02T05:24:14;8.13;;;7.30;;
11052;SDS011;55230;42.602;23.470;2022-09-02T05:26:42;8.13;;;7.43;;
11052;SDS011;55230;42.602;23.470;2022-09-02T05:29:09;8.10;;;7.10;;
11052;SDS011;55230;42.602;23.470;2022-09-02T05:31:37;8.97;;;8.07;;
11052;SDS011;55230;42.602;23.470;2022-09-02T05:34:05;8.53;;;7.73;;
11052;SDS011;55230;42.602;23.470;2022-09-02T05:36:32;8.80;;;7.97;;
11052;SDS011;55230;42.602;23.470;2022-09-02T05:39:00;7.80;;;7.10;;
11052;SDS011;55230;42.602;23.470;2022-09-02T05:41:29;7.60;;;6.90;;
11052;SDS011;55230;42.602;23.470;2022-09-02T05:43:58;7.47;;;6.87;;
11052;SDS011;55230;42.602;23.470;2022-09-02T05:46:26;7.33;;;6.67;;
11052;SDS011;55230;42.602;23.470;2022-09-02T05:48:54;7.33;;;6.63;;
11052;SDS011;55230;42.602;23.470;2022-09-02T05:51:31;7.23;;;6.60;;
11052;SDS011;55230;42.602;23.470;2022-09-02T05:54:02;7.00;;;6.40;;
11052;SDS011;55230;42.602;23.470;2022-09-02T05:56:30;6.53;;;5.93;;
11052;SDS011;55230;42.602;23.470;2022-09-02T05:58:57;6.50;;;5.90;;
11052;SDS011;55230;42.602;23.470;2022-09-02T06:01:24;6.80;;;6.10;;
11052;SDS011;55230;42.602;23.470;2022-09-02T06:03:51;5.80;;;5.20;;
11052;SDS011;55230;42.602;23.470;2022-09-02T06:06:19;6.43;;;5.83;;
11052;SDS011;55230;42.602;23.470;2022-09-02T06:08:47;6.10;;;5.60;;
11052;SDS011;55230;42.602;23.470;2022-09-02T06:11:13;5.67;;;5.17;;
11052;SDS011;55230;42.602;23.470;2022-09-02T06:13:43;5.60;;;5.10;;
11052;SDS011;55230;42.602;23.470;2022-09-02T06:16:12;5.47;;;5.07;;
11052;SDS011;55230;42.602;23.470;2022-09-02T06:18:40;6.00;;;5.50;;
11052;SDS011;55230;42.602;23.470;2022-09-02T06:21:07;6.63;;;6.03;;
11052;SDS011;55230;42.602;23.470;2022-09-02T06:23:34;7.47;;;6.80;;
11052;SDS011;55230;42.602;23.470;2022-09-02T06:26:02;7.60;;;6.80;;
11052;SDS011;55230;42.602;23.470;2022-09-02T06:28:30;11.33;;;7.80;;
11052;SDS011;55230;42.602;23.470;2022-09-02T06:30:58;9.77;;;8.73;;
11052;SDS011;55230;42.602;23.470;2022-09-02T06:33:25;10.23;;;8.20;;
11052;SDS011;55230;42.602;23.470;2022-09-02T06:35:52;9.73;;;8.50;;
11052;SDS011;55230;42.602;23.470;2022-09-02T06:38:19;8.30;;;7.50;;
11052;SDS011;55230;42.602;23.470;2022-09-02T06:40:47;8.60;;;7.63;;
11052;SDS011;55230;42.602;23.470;2022-09-02T06:43:14;8.43;;;7.63;;
11052;SDS011;55230;42.602;23.470;2022-09-02T06:45:41;9.07;;;8.17;;
11052;SDS011;55230;42.602;23.470;2022-09-02T06:48:10;8.73;;;7.83;;
11052;SDS011;55230;42.602;23.470;2022-09-02T06:50:38;9.27;;;8.40;;
11052;SDS011;55230;42.602;23.470;2022-09-02T06:53:06;8.60;;;7.63;;
11052;SDS011;55230;42.602;23.470;2022-09-02T06:55:33;8.50;;;7.80;;
11052;SDS011;55230;42.602;23.470;2022-09-02T06:58:01;8.63;;;7.77;;
11052;SDS011;55230;42.602;23.470;2022-09-02T07:00:28;8.57;;;7.67;;
11052;SDS011;55230;42.602;23.470;2022-09-02T07:02:56;9.00;;;8.10;;
11052;SDS011;55230;42.602;23.470;2022-09-02T07:05:41;8.27;;;7.47;;
11052;SDS011;55230;42.602;23.470;2022-09-02T07:08:08;9.60;;;7.23;;
11052;SDS011;55230;42.602;23.470;2022-09-02T07:10:36;6.63;;;6.03;;
11052;SDS011;55230;42.602;23.470;2022-09-02T07:13:04;6.97;;;6.33;;
11052;SDS011;55230;42.602;23.470;2022-09-02T07:15:31;8.67;;;6.50;;
11052;SDS011;55230;42.602;23.470;2022-09-02T07:17:59;6.60;;;6.00;;
11052;SDS011;55230;42.602;23.470;2022-09-02T07:20:26;6.83;;;6.10;;
11052;SDS011;55230;42.602;23.470;2022-09-02T07:22:54;6.50;;;5.90;;
11052;SDS011;55230;42.602;23.470;2022-09-02T07:25:21;6.27;;;5.73;;
11052;SDS011;55230;42.602;23.470;2022-09-02T07:27:48;6.37;;;5.77;;
11052;SDS011;55230;42.602;23.470;2022-09-02T07:30:16;5.83;;;5.33;;
11052;SDS011;55230;42.602;23.470;2022-09-02T07:32:43;6.30;;;5.70;;
11052;SDS011;55230;42.602;23.470;2022-09-02T07:35:10;5.97;;;5.47;;
11052;SDS011;55230;42.602;23.470;2022-09-02T07:37:37;5.80;;;5.30;;
11052;SDS011;55230;42.602;23.470;2022-09-02T07:40:06;5.90;;;5.40;;
11052;SDS011;55230;42.602;23.470;2022-09-02T07:42:35;5.70;;;5.30;;
11052;SDS011;55230;42.602;23.470;2022-09-02T07:45:02;5.70;;;5.20;;
11052;SDS011;55230;42.602;23.470;2022-09-02T07:47:30;6.13;;;5.57;;
11052;SDS011;55230;42.602;23.470;2022-09-02T07:49:57;6.80;;;5.50;;
11052;SDS011;55230;42.602;23.470;2022-09-02T07:52:24;5.87;;;5.37;;
11052;SDS011;55230;42.602;23.470;2022-09-02T07:54:51;5.67;;;5.17;;
11052;SDS011;55230;42.602;23.470;2022-09-02T07:57:19;5.97;;;5.47;;
11052;SDS011;55230;42.602;23.470;2022-09-02T07:59:46;7.23;;;6.53;;
11052;SDS011;55230;42.602;23.470;2022-09-02T08:02:13;6.10;;;5.50;;
11052;SDS011;55230;42.602;23.470;2022-09-02T08:04:42;7.63;;;6.97;;
11052;SDS011;55230;42.602;23.470;2022-09-02T08:07:09;8.17;;;7.10;;
11052;SDS011;55230;42.602;23.470;2022-09-02T08:09:36;6.90;;;6.20;;
11052;SDS011;55230;42.602;23.470;2022-09-02T08:12:03;7.40;;;6.70;;
11052;SDS011;55230;42.602;23.470;2022-09-02T08:14:32;8.17;;;7.37;;
11052;SDS011;55230;42.602;23.470;2022-09-02T08:16:59;8.33;;;7.57;;
11052;SDS011;55230;42.602;23.470;2022-09-02T08:19:26;8.17;;;7.37;;
11052;SDS011;55230;42.602;23.470;2022-09-02T08:21:53;8.80;;;8.00;;
11052;SDS011;55230;42.602;23.470;2022-09-02T08:24:20;8.83;;;7.93;;
11052;SDS011;55230;42.602;23.470;2022-09-02T08:26:47;9.30;;;8.40;;
11052;SDS011;55230;42.602;23.470;2022-09-02T08:29:14;9.07;;;8.17;;
11052;SDS011;55230;42.602;23.470;2022-09-02T08:31:42;9.60;;;8.60;;
11052;SDS011;55230;42.602;23.470;2022-09-02T08:34:09;9.30;;;8.50;;
11052;SDS011;55230;42.602;23.470;2022-09-02T08:36:35;8.83;;;7.70;;
11052;SDS011;55230;42.602;23.470;2022-09-02T08:39:04;8.53;;;7.67;;
11052;SDS011;55230;42.602;23.470;2022-09-02T08:41:32;8.13;;;7.33;;
11052;SDS011;55230;42.602;23.470;2022-09-02T08:44:03;8.73;;;7.93;;
11052;SDS011;55230;42.602;23.470;2022-09-02T08:46:32;7.50;;;6.80;;
11052;SDS011;55230;42.602;23.470;2022-09-02T08:49:02;8.53;;;7.37;;
11052;SDS011;55230;42.602;23.470;2022-09-02T08:51:33;9.20;;;8.40;;
11052;SDS011;55230;42.602;23.470;2022-09-02T08:54:03;10.27;;;7.57;;
11052;SDS011;55230;42.602;23.470;2022-09-02T08:56:33;8.87;;;7.90;;
11052;SDS011;55230;42.602;23.470;2022-09-02T08:59:00;8.53;;;7.73;;
11052;SDS011;55230;42.602;23.470;2022-09-02T09:01:32;8.90;;;8.10;;
11052;SDS011;55230;42.602;23.470;2022-09-02T09:04:15;8.83;;;8.00;;
11052;SDS011;55230;42.602;23.470;2022-09-02T09:06:53;9.37;;;8.50;;
11052;SDS011;55230;42.602;23.470;2022-09-02T09:09:33;11.00;;;9.90;;
11052;SDS011;55230;42.602;23.470;2022-09-02T09:12:12;11.13;;;9.40;;
11052;SDS011;55230;42.602;23.470;2022-09-02T09:14:48;10.60;;;9.50;;
11052;SDS011;55230;42.602;23.470;2022-09-02T09:17:25;10.87;;;9.77;;
11052;SDS011;55230;42.602;23.470;2022-09-02T09:19:58;10.77;;;9.60;;
11052;SDS011;55230;42.602;23.470;2022-09-02T09:22:30;13.90;;;9.97;;
11052;SDS011;55230;42.602;23.470;2022-09-02T09:25:01;12.83;;;11.53;;
11052;SDS011;55230;42.602;23.470;2022-09-02T09:27:32;13.43;;;11.60;;
11052;SDS011;55230;42.602;23.470;2022-09-02T09:29:59;13.43;;;12.07;;
11052;SDS011;55230;42.602;23.470;2022-09-02T09:32:27;14.00;;;12.37;;
11052;SDS011;55230;42.602;23.470;2022-09-02T09:34:59;14.77;;;13.17;;
11052;SDS011;55230;42.602;23.470;2022-09-02T09:37:28;15.43;;;13.03;;
11052;SDS011;55230;42.602;23.470;2022-09-02T09:39:57;14.93;;;12.83;;
11052;SDS011;55230;42.602;23.470;2022-09-02T09:42:31;14.97;;;13.47;;
11052;SDS011;55230;42.602;23.470;2022-09-02T09:45:07;15.37;;;13.87;;
11052;SDS011;55230;42.602;23.470;2022-09-02T09:47:44;16.47;;;13.03;;
11052;SDS011;55230;42.602;23.470;2022-09-02T09:50:14;15.77;;;13.93;;
11052;SDS011;55230;42.602;23.470;2022-09-02T09:52:42;15.87;;;14.27;;
11052;SDS011;55230;42.602;23.470;2022-09-02T09:55:14;15.97;;;14.37;;
11052;SDS011;55230;42.602;23.470;2022-09-02T09:57:44;16.00;;;14.30;;
11052;SDS011;55230;42.602;23.470;2022-09-02T10:00:13;14.57;;;12.70;;
11052;SDS011;55230;42.602;23.470;2022-09-02T10:02:46;16.90;;;15.20;;
11052;SDS011;55230;42.602;23.470;2022-09-02T10:05:18;17.33;;;15.53;;
11052;SDS011;55230;42.602;23.470;2022-09-02T10:07:56;15.40;;;13.90;;
11052;SDS011;55230;42.602;23.470;2022-09-02T10:10:24;16.17;;;14.57;;
11052;SDS011;55230;42.602;23.470;2022-09-02T10:12:53;16.57;;;14.77;;
11052;SDS011;55230;42.602;23.470;2022-09-02T10:15:30;16.17;;;14.57;;
11052;SDS011;55230;42.602;23.470;2022-09-02T10:18:14;17.63;;;15.90;;
11052;SDS011;55230;42.602;23.470;2022-09-02T10:20:55;17.67;;;15.87;;
11052;SDS011;55230;42.602;23.470;2022-09-02T10:23:28;17.73;;;15.93;;
11052;SDS011;55230;42.602;23.470;2022-09-02T10:26:06;16.97;;;15.27;;
11052;SDS011;55230;42.602;23.470;2022-09-02T10:28:55;16.63;;;14.93;;
11052;SDS011;55230;42.602;23.470;2022-09-02T10:31:35;18.30;;;15.63;;
11052;SDS011;55230;42.602;23.470;2022-09-02T10:34:12;18.53;;;16.43;;
11052;SDS011;55230;42.602;23.470;2022-09-02T10:36:56;16.90;;;15.10;;
11052;SDS011;55230;42.602;23.470;2022-09-02T10:39:37;16.30;;;14.60;;
11052;SDS011;55230;42.602;23.470;2022-09-02T10:42:19;17.50;;;15.80;;
11052;SDS011;55230;42.602;23.470;2022-09-02T10:44:59;17.03;;;15.23;;
11052;SDS011;55230;42.602;23.470;2022-09-02T10:47:35;18.13;;;16.17;;
11052;SDS011;55230;42.602;23.470;2022-09-02T10:50:07;17.77;;;15.98;;
11052;SDS011;55230;42.602;23.470;2022-09-02T10:52:50;17.90;;;16.02;;
11052;SDS011;55230;42.602;23.470;2022-09-02T10:55:31;18.25;;;15.85;;
11052;SDS011;55230;42.602;23.470;2022-09-02T10:58:07;16.50;;;14.80;;
11052;SDS011;55230;42.602;23.470;2022-09-02T11:00:39;18.17;;;16.27;;
11052;SDS011;55230;42.602;23.470;2022-09-02T11:03:10;18.47;;;16.57;;
11052;SDS011;55230;42.602;23.470;2022-09-02T11:05:46;19.27;;;16.90;;
11052;SDS011;55230;42.602;23.470;2022-09-02T11:08:18;21.00;;;17.70;;
11052;SDS011;55230;42.602;23.470;2022-09-02T11:10:53;19.33;;;17.07;;
11052;SDS011;55230;42.602;23.470;2022-09-02T11:13:28;19.63;;;16.97;;
11052;SDS011;55230;42.602;23.470;2022-09-02T11:16:04;19.83;;;17.73;;
11052;SDS011;55230;42.602;23.470;2022-09-02T11:18:40;18.93;;;16.90;;
11052;SDS011;55230;42.602;23.470;2022-09-02T11:21:20;18.97;;;17.07;;
11052;SDS011;55230;42.602;23.470;2022-09-02T11:23:58;18.37;;;16.57;;
11052;SDS011;55230;42.602;23.470;2022-09-02T11:26:31;20.90;;;18.10;;
11052;SDS011;55230;42.602;23.470;2022-09-02T11:29:04;19.67;;;17.57;;
11052;SDS011;55230;42.602;23.470;2022-09-02T11:31:37;19.17;;;17.17;;
11052;SDS011;55230;42.602;23.470;2022-09-02T11:34:15;19.95;;;17.27;;
11052;SDS011;55230;42.602;23.470;2022-09-02T11:36:46;19.42;;;17.05;;
11052;SDS011;55230;42.602;23.470;2022-09-02T11:39:16;19.15;;;17.27;;
11052;SDS011;55230;42.602;23.470;2022-09-02T11:41:53;22.45;;;17.92;;
11052;SDS011;55230;42.602;23.470;2022-09-02T11:44:35;20.20;;;18.20;;
11052;SDS011;55230;42.602;23.470;2022-09-02T11:50:08;21.85;;;19.58;;
11052;SDS011;55230;42.602;23.470;2022-09-02T11:52:56;26.58;;;17.67;;
11052;SDS011;55230;42.602;23.470;2022-09-02T11:55:32;19.65;;;17.67;;
11052;SDS011;55230;42.602;23.470;2022-09-02T11:58:03;20.00;;;17.90;;
11052;SDS011;55230;42.602;23.470;2022-09-02T12:00:30;20.08;;;17.42;;
11052;SDS011;55230;42.602;23.470;2022-09-02T12:03:10;20.17;;;18.08;;
11052;SDS011;55230;42.602;23.470;2022-09-02T12:05:47;20.30;;;18.30;;
11052;SDS011;55230;42.602;23.470;2022-09-02T12:20:02;19.05;;;16.75;;
11052;SDS011;55230;42.602;23.470;2022-09-02T12:22:32;20.13;;;17.83;;
11052;SDS011;55230;42.602;23.470;2022-09-02T12:25:03;18.88;;;17.08;;
11052;SDS011;55230;42.602;23.470;2022-09-02T12:31:08;19.27;;;17.25;;
11052;SDS011;55230;42.602;23.470;2022-09-02T12:33:39;18.70;;;16.70;;
11052;SDS011;55230;42.602;23.470;2022-09-02T12:36:08;20.67;;;18.75;;
11052;SDS011;55230;42.602;23.470;2022-09-02T12:38:55;21.02;;;17.88;;
11052;SDS011;55230;42.602;23.470;2022-09-02T12:42:12;21.40;;;19.10;;
11052;SDS011;55230;42.602;23.470;2022-09-02T12:44:47;19.15;;;17.08;;
11052;SDS011;55230;42.602;23.470;2022-09-02T12:47:22;20.05;;;18.00;;
11052;SDS011;55230;42.602;23.470;2022-09-02T12:49:59;18.27;;;16.38;;
11052;SDS011;55230;42.602;23.470;2022-09-02T12:52:43;19.15;;;17.25;;
11052;SDS011;55230;42.602;23.470;2022-09-02T12:55:14;19.80;;;17.90;;
11052;SDS011;55230;42.602;23.470;2022-09-02T12:57:46;21.00;;;18.80;;
11052;SDS011;55230;42.602;23.470;2022-09-02T13:00:24;20.05;;;17.80;;
11052;SDS011;55230;42.602;23.470;2022-09-02T13:02:58;24.38;;;21.85;;
11052;SDS011;55230;42.602;23.470;2022-09-02T13:05:44;26.42;;;19.80;;
11052;SDS011;55230;42.602;23.470;2022-09-02T13:11:46;23.40;;;19.88;;
11052;SDS011;55230;42.602;23.470;2022-09-02T13:17:27;26.77;;;20.13;;
11052;SDS011;55230;42.602;23.470;2022-09-02T13:23:17;25.40;;;19.58;;
11052;SDS011;55230;42.602;23.470;2022-09-02T13:26:05;22.63;;;19.75;;
11052;SDS011;55230;42.602;23.470;2022-09-02T13:32:09;24.43;;;21.00;;
11052;SDS011;55230;42.602;23.470;2022-09-02T13:34:41;24.73;;;21.57;;
11052;SDS011;55230;42.602;23.470;2022-09-02T13:39:54;28.00;;;22.50;;
11052;SDS011;55230;42.602;23.470;2022-09-02T13:42:22;27.07;;;21.50;;
11052;SDS011;55230;42.602;23.470;2022-09-02T13:44:50;24.80;;;21.63;;
11052;SDS011;55230;42.602;23.470;2022-09-02T13:47:16;28.93;;;22.70;;
11052;SDS011;55230;42.602;23.470;2022-09-02T13:49:46;29.47;;;22.17;;
11052;SDS011;55230;42.602;23.470;2022-09-02T13:52:19;25.13;;;22.07;;
11052;SDS011;55230;42.602;23.470;2022-09-02T13:54:48;28.17;;;21.67;;
11052;SDS011;55230;42.602;23.470;2022-09-02T13:57:21;25.03;;;20.07;;
11052;SDS011;55230;42.602;23.470;2022-09-02T13:59:50;26.03;;;20.17;;
11052;SDS011;55230;42.602;23.470;2022-09-02T14:02:23;23.10;;;20.37;;
11052;SDS011;55230;42.602;23.470;2022-09-02T14:04:54;24.20;;;19.70;;
11052;SDS011;55230;42.602;23.470;2022-09-02T14:07:25;23.33;;;19.97;;
11052;SDS011;55230;42.602;23.470;2022-09-02T14:09:57;25.73;;;20.83;;
11052;SDS011;55230;42.602;23.470;2022-09-02T14:12:27;23.27;;;20.60;;
11052;SDS011;55230;42.602;23.470;2022-09-02T14:14:58;23.90;;;20.10;;
11052;SDS011;55230;42.602;23.470;2022-09-02T14:17:25;22.83;;;20.37;;
11052;SDS011;55230;42.602;23.470;2022-09-02T14:20:07;25.07;;;20.17;;
11052;SDS011;55230;42.602;23.470;2022-09-02T14:22:35;25.67;;;20.30;;
11052;SDS011;55230;42.602;23.470;2022-09-02T14:25:07;23.20;;;20.30;;
11052;SDS011;55230;42.602;23.470;2022-09-02T14:27:37;25.57;;;21.23;;
11052;SDS011;55230;42.602;23.470;2022-09-02T14:30:05;24.37;;;20.37;;
11052;SDS011;55230;42.602;23.470;2022-09-02T14:32:34;23.83;;;20.47;;
11052;SDS011;55230;42.602;23.470;2022-09-02T14:35:11;24.87;;;20.87;;
11052;SDS011;55230;42.602;23.470;2022-09-02T14:37:49;25.33;;;20.50;;
11052;SDS011;55230;42.602;23.470;2022-09-02T14:40:17;24.53;;;21.27;;
11052;SDS011;55230;42.602;23.470;2022-09-02T14:42:57;28.03;;;22.40;;
11052;SDS011;55230;42.602;23.470;2022-09-02T14:45:25;24.73;;;21.53;;
11052;SDS011;55230;42.602;23.470;2022-09-02T14:47:53;25.43;;;21.97;;
11052;SDS011;55230;42.602;23.470;2022-09-02T14:50:24;27.43;;;22.93;;
11052;SDS011;55230;42.602;23.470;2022-09-02T14:52:55;26.50;;;22.93;;
11052;SDS011;55230;42.602;23.470;2022-09-02T14:55:39;29.67;;;22.43;;
11052;SDS011;55230;42.602;23.470;2022-09-02T14:58:10;29.33;;;24.17;;
11052;SDS011;55230;42.602;23.470;2022-09-02T15:00:37;27.87;;;22.87;;
11052;SDS011;55230;42.602;23.470;2022-09-02T15:03:04;27.23;;;23.63;;
11052;SDS011;55230;42.602;23.470;2022-09-02T15:05:33;28.50;;;23.37;;
11052;SDS011;55230;42.602;23.470;2022-09-02T15:08:00;29.60;;;22.67;;
11052;SDS011;55230;42.602;23.470;2022-09-02T15:10:27;26.17;;;21.60;;